Central Oregon RPC :: CEDARVILLE, CA B

liberation: 2020-06-08  07:30     latitude: 41.558500     longitude: -120.395100 128 birds
# LOFT PRING MILES ARRIVAL SPEED ToWin
1 ROCKY TOP AU18-CORP-3310 188.649 2020-06-08 11:10:53.063 1503.152 00:00:00
2 ROCKY TOP AU19-CORP-4443 188.649 2020-06-08 11:10:55.037 1502.928 00:00:02
3 ROCKY TOP AU19-CORP-4477 188.649 2020-06-08 11:10:55.380 1502.889 00:00:02
4 ROCKY TOP AU18-CORP-3313 188.649 2020-06-08 11:10:56.143 1502.803 00:00:03
5 ROCKY TOP AU19-CORP-4464 188.649 2020-06-08 11:10:56.449 1502.768 00:00:03
6 ROCKY TOP AU19-CORP-4473 188.649 2020-06-08 11:10:58.390 1502.548 00:00:05
7 ROCKY TOP AU19-JEDD-0505 188.649 2020-06-08 11:10:59.882 1502.379 00:00:07
8 ROCKY TOP AU19-CORP-4405 188.649 2020-06-08 11:11:01.704 1502.172 00:00:09
9 ROCKY TOP AU18-CORP-3353 188.649 2020-06-08 11:11:03.426 1501.977 00:00:10
10 ROCKY TOP AU16-CORP-7701 188.649 2020-06-08 11:11:09.576 1501.281 00:00:17
11 ROCKY TOP AU18-CORP-3300 188.649 2020-06-08 11:12:04.655 1495.076 00:01:12
12 ROCKY TOP AU18-CORP-3349 188.649 2020-06-08 11:13:27.008 1485.892 00:02:34
13 ROCKY TOP AU19-JEDD-0507 188.649 2020-06-08 11:13:35.809 1484.917 00:02:43
14 ROCKY TOP AU19-CORP-4435 188.649 2020-06-08 11:13:40.302 1484.420 00:02:47
15 ROCKY TOP AU18-CORP-3351 188.649 2020-06-08 11:13:50.329 1483.312 00:02:57
16 RUETER FAMILY LOFT AU19-CORP-5477 223.008 2020-06-08 11:55:38.449 1477.535 00:04:32
17 RUETER FAMILY LOFT AU18-CORP-2721 223.008 2020-06-08 11:55:49.032 1476.555 00:04:42
18 RUETER FAMILY LOFT AU19-CORP-5463 223.008 2020-06-08 11:55:49.858 1476.479 00:04:43
19 RUETER FAMILY LOFT AU18-CORP-2684 223.008 2020-06-08 11:55:51.960 1476.284 00:04:45
20 RUETER FAMILY LOFT AU19-CORP-5405 223.008 2020-06-08 11:55:53.320 1476.158 00:04:46
21 RUETER FAMILY LOFT AU18-CORP-2744 223.008 2020-06-08 11:56:42.336 1471.637 00:05:36
22 RUETER FAMILY LOFT AU19-CORP-5310 223.008 2020-06-08 11:57:41.937 1466.176 00:06:35
23 ROCKY TOP AU19-CORP-4442 188.649 2020-06-08 11:17:17.293 1460.801 00:06:24
24 ROCKY TOP AU17-OTC-0317 188.649 2020-06-08 11:17:19.531 1460.561 00:06:26
25 ROCKY TOP AU16-CORP-7706 188.649 2020-06-08 11:17:20.856 1460.419 00:06:28
26 ROCKY TOP AU18-CORP-3365 188.649 2020-06-08 11:17:23.663 1460.119 00:06:31
27 ROCKY TOP AU18-CORP-3354 188.649 2020-06-08 11:17:28.052 1459.649 00:06:35
28 ROCKY TOP AU19-CORP-4400 188.649 2020-06-08 11:17:37.609 1458.628 00:06:45
29 ROCKY TOP AU18-CORP-3371 188.649 2020-06-08 11:17:43.897 1457.956 00:06:51
30 RUETER FAMILY LOFT AU19-CORP-5331 223.008 2020-06-08 11:59:34.333 1455.987 00:08:28
31 RUETER FAMILY LOFT AU19-CORP-5419 223.008 2020-06-08 11:59:49.846 1454.592 00:08:43
32 ROCKY TOP AU19-CORP-4474 188.649 2020-06-08 11:18:20.799 1454.030 00:07:28
33 ROCKY TOP AU17-CORP-0798 188.649 2020-06-08 11:18:50.573 1450.877 00:07:58
34 RUETER FAMILY LOFT AU18-CORP-2643 223.008 2020-06-08 12:01:11.053 1447.332 00:10:04
35 RUETER FAMILY LOFT AU18-CORP-2626 223.008 2020-06-08 12:01:26.589 1445.952 00:10:20
36 RUETER FAMILY LOFT AU17-CORP-0498 223.008 2020-06-08 12:01:27.301 1445.889 00:10:20
37 STEELE LOFT AU19-JEDD-1973 195.588 2020-06-08 11:28:05.989 1445.760 00:09:05
38 RUETER FAMILY LOFT AU19-CORP-5377 223.008 2020-06-08 12:01:29.174 1445.722 00:10:22
39 RUETER FAMILY LOFT AU18-CORP-2777 223.008 2020-06-08 12:01:31.708 1445.498 00:10:25
40 RUETER FAMILY LOFT AU19-CORP-5295 223.008 2020-06-08 12:01:34.071 1445.288 00:10:27
41 TOPIGEONUSA AU18-CORP-4205 195.356 2020-06-08 11:27:55.419 1445.112 00:09:11
42 RUETER FAMILY LOFT AU19-CORP-5453 223.008 2020-06-08 12:01:39.231 1444.830 00:10:32
43 TOPIGEONUSA AU19-CORP-5124 195.356 2020-06-08 11:28:02.618 1444.384 00:09:18
44 RUETER FAMILY LOFT AU19-CORP-5408 223.008 2020-06-08 12:01:45.381 1444.285 00:10:39
45 RUETER FAMILY LOFT AU19-CORP-5344 223.008 2020-06-08 12:01:51.670 1443.729 00:10:45
46 RUETER FAMILY LOFT AU19-CORP-5445 223.008 2020-06-08 12:02:10.756 1442.041 00:11:04
47 TOPIGEONUSA AU18-CORP-4272 195.356 2020-06-08 11:29:23.299 1436.271 00:10:39
48 TOPIGEONUSA AU19-CORP-5136 195.356 2020-06-08 11:29:30.515 1435.549 00:10:46
49 TOPIGEONUSA AU19-CORP-4938 195.356 2020-06-08 11:29:45.554 1434.049 00:11:01
50 HENDRICKSON FAMILY LOFT AU18-CORP-4005 193.205 2020-06-08 11:27:47.312 1430.016 00:11:34
51 HENDRICKSON FAMILY LOFT AU18-CORP-4006 193.205 2020-06-08 11:28:10.211 1427.724 00:11:57
52 ROCKY TOP AU18-CORP-3343 188.649 2020-06-08 11:22:38.294 1427.206 00:11:45
53 RUETER FAMILY LOFT AU18-CORP-2726 223.008 2020-06-08 12:05:12.249 1426.191 00:14:05
54 RUETER FAMILY LOFT AU17-CORP-0513 223.008 2020-06-08 12:05:13.466 1426.086 00:14:07
55 RUETER FAMILY LOFT AU19-CORP-5335 223.008 2020-06-08 12:05:14.485 1425.998 00:14:08
56 ROCKY TOP AU19-CORP-4454 188.649 2020-06-08 11:22:59.058 1425.086 00:12:06
57 RUETER FAMILY LOFT AU18-CORP-2774 223.008 2020-06-08 12:05:26.858 1424.930 00:14:20
58 TIM GRAVES AU16-CORP-6702 187.408 2020-06-08 11:21:29.684 1424.816 00:12:04
59 RUETER FAMILY LOFT AU17-CORP-0521 223.008 2020-06-08 12:05:48.890 1423.033 00:14:42
60 RUETER FAMILY LOFT AU18-CORP-2728 223.008 2020-06-08 12:05:52.757 1422.701 00:14:46
61 RUETER FAMILY LOFT AU18-CORP-2651 223.008 2020-06-08 12:05:54.628 1422.540 00:14:48
62 STEELE LOFT AU15-CORP-3873 195.588 2020-06-08 11:32:11.187 1421.365 00:13:11
63 AMERICAN LOFT AU19-CORP-4647 193.125 2020-06-08 11:29:39.818 1418.234 00:13:32
64 RUETER FAMILY LOFT AU19-CORP-5447 223.008 2020-06-08 12:07:05.698 1416.459 00:15:59
65 AMERICAN LOFT AU19-CORP-4751 193.125 2020-06-08 11:30:27.243 1413.572 00:14:20
66 RUETER FAMILY LOFT AU19-CORP-5458 223.008 2020-06-08 12:07:42.066 1413.368 00:16:35
67 HENDRICKSON FAMILY LOFT AU18-CORP-4034 193.205 2020-06-08 11:30:47.176 1412.212 00:14:34
68 RUETER FAMILY LOFT AU19-CORP-5376 223.008 2020-06-08 12:09:02.781 1406.554 00:17:56
69 HENDRICKSON FAMILY LOFT AU19-CORP-4366 193.205 2020-06-08 11:32:00.728 1405.059 00:15:48
70 HENDRICKSON FAMILY LOFT AU19-CORP-4372 193.205 2020-06-08 11:32:10.079 1404.155 00:15:57
71 AMERICAN LOFT AU19-CORP-4746 193.125 2020-06-08 11:32:29.169 1401.726 00:16:22
72 RUETER FAMILY LOFT AU19-CORP-5289 223.008 2020-06-08 12:10:15.211 1400.495 00:19:08
73 RUETER FAMILY LOFT AU19-CORP-5425 223.008 2020-06-08 12:10:15.755 1400.450 00:19:09
74 RUETER FAMILY LOFT AU17-CORP-0449 223.008 2020-06-08 12:10:20.043 1400.093 00:19:13
75 HENDRICKSON FAMILY LOFT AU19-CORP-4359 193.205 2020-06-08 11:33:16.285 1397.786 00:17:03
76 RUETER FAMILY LOFT AU19-CORP-5435 223.008 2020-06-08 12:10:53.951 1397.276 00:19:47
77 RUETER FAMILY LOFT AU19-CORP-5342 223.008 2020-06-08 12:10:56.747 1397.044 00:19:50
78 HENDRICKSON FAMILY LOFT AU19-CORP-4385 193.205 2020-06-08 11:33:24.312 1397.018 00:17:11
79 TIM GRAVES AU17-FOYS-3050 187.408 2020-06-08 11:26:13.111 1396.324 00:16:47
80 STEELE LOFT AU17-CAPT-0094 195.588 2020-06-08 11:37:48.696 1389.101 00:18:48
81 RUETER FAMILY LOFT AU18-CORP-2635 223.008 2020-06-08 12:13:13.547 1385.798 00:22:07
82 RUETER FAMILY LOFT AU17-CORP-0425 223.008 2020-06-08 12:13:16.523 1385.555 00:22:10
83 RUETER FAMILY LOFT AU19-CORP-5336 223.008 2020-06-08 12:13:34.849 1384.063 00:22:28
84 ROCKY TOP AU16-CORP-7143 188.649 2020-06-08 11:29:57.822 1383.637 00:19:05
85 AMERICAN LOFT AU17-CORP-0062 193.125 2020-06-08 11:36:26.772 1379.202 00:20:19
86 TIM GRAVES AU17-FHI-1014 187.408 2020-06-08 11:29:10.994 1379.016 00:19:45
87 RUETER FAMILY LOFT AU19-CORP-5330 223.008 2020-06-08 12:14:58.330 1377.305 00:23:52
88 RUETER FAMILY LOFT AU17-CORP-0589 223.008 2020-06-08 12:15:01.549 1377.046 00:23:55
89 RUETER FAMILY LOFT AU19-CORP-5413 223.008 2020-06-08 12:15:07.548 1376.563 00:24:01
90 TIM GRAVES AU17-CORP-0812 187.408 2020-06-08 11:29:42.025 1376.041 00:20:16
91 AMERICAN LOFT AU19-CORP-4605 193.125 2020-06-08 11:37:16.746 1374.557 00:21:09
92 TIM GRAVES AU17-CORP-2034 187.408 2020-06-08 11:30:06.649 1373.689 00:20:41
93 RUETER FAMILY LOFT AU17-CORP-0419 223.008 2020-06-08 12:16:48.166 1368.514 00:25:41
94 TOPIGEONUSA AU19-CORP-4908 195.356 2020-06-08 11:42:33.221 1361.399 00:23:49
95 RUETER FAMILY LOFT AU19-CORP-5367 223.008 2020-06-08 12:22:37.884 1341.256 00:31:31
96 TIM GRAVES AU13-TCW-3849 187.408 2020-06-08 11:36:32.274 1337.877 00:27:06
97 TIM GRAVES AU17-FHI-0202 187.408 2020-06-08 11:36:36.226 1337.520 00:27:10
98 AMERICAN LOFT AU19-CORP-4690 193.125 2020-06-08 11:44:08.889 1337.406 00:28:01
99 TIM GRAVES AU16-AUB-0602 187.408 2020-06-08 11:36:54.536 1335.867 00:27:29
100 TIM GRAVES AU17-CORP-2022 187.408 2020-06-08 11:38:38.273 1326.578 00:29:12
101 TIM GRAVES AU15-CORP-3096 187.408 2020-06-08 11:38:55.365 1325.060 00:29:30
102 RUETER FAMILY LOFT AU19-CORP-5358 223.008 2020-06-08 12:28:27.736 1315.053 00:37:21
103 STEELE LOFT AU14-CORP-1062 195.588 2020-06-08 11:55:22.863 1297.136 00:36:22
104 TIM GRAVES AU19-CORP-4239 187.408 2020-06-08 11:44:24.955 1296.450 00:34:59
105 HENDRICKSON FAMILY LOFT AU19-CORP-4364 193.205 2020-06-08 11:55:04.924 1282.778 00:38:52
106 HENDRICKSON FAMILY LOFT AU19-ARPU-29020 193.205 2020-06-08 11:57:30.557 1271.138 00:41:17
107 AMERICAN LOFT AU19-CORP-4650 193.125 2020-06-08 11:59:00.554 1263.522 00:42:53
108 RUETER FAMILY LOFT AU19-CORP-5455 223.008 2020-06-08 12:41:51.829 1258.542 00:50:45
109 TIM GRAVES AU19-CORP-4207 187.408 2020-06-08 11:52:26.152 1256.831 00:43:00
110 STEELE LOFT AU16-MTH-11012 195.588 2020-06-08 12:04:38.318 1253.412 00:45:38
111 AMERICAN LOFT AU19-CORP-4769 193.125 2020-06-08 12:02:26.380 1247.613 00:46:19
112 TIM GRAVES AU16-FHI-0243 187.408 2020-06-08 11:56:31.331 1237.561 00:47:05
113 AMERICAN LOFT AU19-CORP-4622 193.125 2020-06-08 12:05:56.177 1231.803 00:49:49
114 RUETER FAMILY LOFT AU19-CORP-5351 223.008 2020-06-08 12:52:09.242 1218.342 01:01:02
115 RUETER FAMILY LOFT AU18-CORP-2696 223.008 2020-06-08 12:56:40.532 1201.479 01:05:34
116 TOPIGEONUSA AU19-CORP-4956 195.356 2020-06-08 12:25:17.992 1164.330 01:06:34
117 ROCKY TOP AU19-CORP-4490 188.649 2020-06-08 12:35:45.548 1085.896 01:24:52
118 TIM GRAVES AU19-CORP-4211 187.408 2020-06-08 12:36:31.947 1076.028 01:27:06
119 RUETER FAMILY LOFT AU19-CORP-5339 223.008 2020-06-08 13:56:31.842 1015.427 02:05:25
120 AMERICAN LOFT AU19-CORP-4699 193.125 2020-06-08 13:32:55.914 936.537 02:16:48
121 ROCKY TOP AU19-ARPU-29012 188.649 2020-06-08 13:34:54.299 909.888 02:24:01
122 AMERICAN LOFT AU19-CORP-4726 193.125 2020-06-08 16:13:09.201 649.712 04:57:02
123 HENDRICKSON FAMILY LOFT AU19-ARPU-29030 193.205 2020-06-08 18:15:05.690 527.118 06:58:53
124 AMERICAN LOFT AU19-CORP-4713 193.125 2020-06-08 18:16:28.573 525.772 07:00:21
RUETER FAMILY LOFT AU18-CORP-2678 0 0000-00-00 00:00:00.000 0.000 00:00:00
RUETER FAMILY LOFT AU19-CORP-5259 0 0000-00-00 00:00:00.000 0.000 00:00:00
TIM GRAVES AU14-CORP-1963 0 0000-00-00 00:00:00.000 0.000 00:00:00
TIM GRAVES AU19-CORP-4223 0 0000-00-00 00:00:00.000 0.000 00:00:00